Macksburg, Iowa
Current Conditions -  °F | °C
As of 6:55 AM on Friday 24 Oct 2014 (Local Time) from KCSQ Reporting Station
Moderate Fog Moderate Fog  
Wind Chill: 57°   Ceiling: 200
Heat Index: 57°   Visibility: 0.25mi
Dew Point: 57°   Wind: 13mph
Humidity: 100%   Direction: 210°SSW
Pressure: 30"   Gusts: NA
Location:  41.21°N, 94.19°W
Report Text: KCSQ 241155Z AUTO 21011KT 1/4SM FG OVC002 14/14 A3000 RMK AO2
Loading
Personal Weather Stations






























Interactive Weather Map
Tropical Storm Tracking
New forecast layout! Learn more

10-Day Weather Forecast

Advertisements
Track Severe Weather on mobile